Time,TemperatureF,DewpointF,PressureIn,WindDirection,WindDirectionDegrees,WindSpeedMPH,WindSpeedGustMPH,Humidity,HourlyPrecipIn,Conditions,Clouds,dailyrainin,SolarRadiationWatts/m^2,SoftwareType,DateUTC
2013-08-29 00:08:00,65.0,64.0,-100.00,South,182,0.0,2.0,97,0.00,,,0.00,0.000000,,2013-08-29 04:08:00,
2013-08-29 00:12:00,65.0,64.0,-100.00,South,189,0.0,2.0,97,0.00,,,-99.99,0.000000,,2013-08-29 04:12:00,
2013-08-29 00:46:00,65.0,64.0,-100.00,South,189,0.0,2.0,97,0.00,,,-99.99,0.000000,,2013-08-29 04:46:00,
2013-08-29 00:54:00,65.0,64.0,-100.00,South,189,0.0,2.0,97,0.00,,,-99.99,0.000000,,2013-08-29 04:54:00,
2013-08-29 01:05:00,65.0,64.0,-100.00,South,189,0.0,2.0,97,0.00,,,-99.99,0.000000,,2013-08-29 05:05:00,
2013-08-29 01:12:00,64.0,63.0,-100.00,WSW,242,1.0,2.0,98,0.00,,,0.00,0.000000,,2013-08-29 05:12:00,
2013-08-29 01:42:00,64.0,63.0,-100.00,WSW,242,1.0,2.0,98,0.00,,,0.00,0.000000,,2013-08-29 05:42:00,
2013-08-29 01:52:00,64.0,63.0,-100.00,WSW,242,1.0,2.0,98,0.00,,,0.00,0.000000,,2013-08-29 05:52:00,
2013-08-29 02:02:00,64.0,63.0,-100.00,WSW,242,1.0,2.0,98,0.00,,,0.00,0.000000,,2013-08-29 06:02:00,
2013-08-29 02:12:00,64.0,63.0,-100.00,West,263,0.0,2.0,98,0.00,,,0.00,0.000000,,2013-08-29 06:12:00,
2013-08-29 02:43:00,64.0,63.0,-100.00,West,263,0.0,2.0,98,0.00,,,0.00,0.000000,,2013-08-29 06:43:00,
2013-08-29 02:52:00,64.0,63.0,-100.00,West,263,0.0,2.0,98,0.00,,,0.00,0.000000,,2013-08-29 06:52:00,
2013-08-29 03:01:00,64.0,63.0,-100.00,West,263,0.0,2.0,98,0.00,,,0.00,0.000000,,2013-08-29 07:01:00,
2013-08-29 03:12:00,62.0,61.0,-100.00,WSW,244,0.0,2.0,98,0.00,,,0.00,0.000000,,2013-08-29 07:12:00,
2013-08-29 03:42:00,62.0,61.0,-100.00,WSW,244,0.0,2.0,98,0.00,,,0.00,0.000000,,2013-08-29 07:42:00,
2013-08-29 03:53:00,62.0,61.0,-100.00,WSW,244,0.0,2.0,98,0.00,,,0.00,0.000000,,2013-08-29 07:53:00,
2013-08-29 04:02:00,62.0,61.0,-100.00,WSW,244,0.0,2.0,98,0.00,,,0.00,0.000000,,2013-08-29 08:02:00,
2013-08-29 04:12:00,62.0,61.0,-100.00,SW,214,0.0,2.0,98,0.00,,,0.00,0.000000,,2013-08-29 08:12:00,
2013-08-29 04:42:00,62.0,61.0,-100.00,SW,214,0.0,2.0,98,0.00,,,0.00,0.000000,,2013-08-29 08:42:00,
2013-08-29 04:52:00,62.0,61.0,-100.00,SW,214,0.0,2.0,98,0.00,,,0.00,0.000000,,2013-08-29 08:52:00,
2013-08-29 05:01:00,62.0,61.0,-100.00,SW,214,0.0,2.0,98,0.00,,,0.00,0.000000,,2013-08-29 09:01:00,
2013-08-29 05:12:00,63.0,62.0,-100.00,WSW,251,0.0,5.0,97,0.00,,,0.00,0.000000,,2013-08-29 09:12:00,
2013-08-29 05:43:00,63.0,62.0,-100.00,WSW,251,0.0,5.0,97,0.00,,,0.00,0.000000,,2013-08-29 09:43:00,
2013-08-29 05:55:00,63.0,62.0,-100.00,WSW,251,0.0,5.0,97,0.00,,,0.00,0.000000,,2013-08-29 09:55:00,
2013-08-29 06:06:00,63.0,62.0,-100.00,WSW,251,0.0,5.0,97,0.00,,,0.00,0.000000,,2013-08-29 10:06:00,
2013-08-29 06:12:00,65.0,64.0,-100.00,SW,227,2.0,5.0,96,0.00,,,0.00,0.000000,,2013-08-29 10:12:00,
2013-08-29 06:43:00,65.0,64.0,-100.00,SW,227,2.0,5.0,96,0.00,,,0.00,0.000000,,2013-08-29 10:43:00,
2013-08-29 06:53:00,65.0,64.0,-100.00,SW,227,2.0,5.0,96,0.00,,,0.00,0.000000,,2013-08-29 10:53:00,
2013-08-29 07:03:00,65.0,64.0,-100.00,SW,227,2.0,5.0,96,0.00,,,0.00,0.000000,,2013-08-29 11:03:00,
2013-08-29 07:42:00,65.0,64.0,-100.00,WSW,255,2.0,5.0,95,0.00,,,-99.99,1.000000,,2013-08-29 11:42:00,
2013-08-29 07:52:00,65.0,64.0,-100.00,WSW,255,2.0,5.0,95,0.00,,,-99.99,1.000000,,2013-08-29 11:52:00,
2013-08-29 08:02:00,65.0,64.0,-100.00,WSW,255,2.0,5.0,95,0.00,,,-99.99,1.000000,,2013-08-29 12:02:00,
2013-08-29 08:11:00,65.0,64.0,-100.00,WSW,255,2.0,5.0,95,0.00,,,-99.99,1.000000,,2013-08-29 12:11:00,
2013-08-29 08:12:00,67.0,65.0,-100.00,WSW,251,3.0,5.0,92,0.00,,,0.00,44.000000,,2013-08-29 12:12:00,
2013-08-29 08:42:00,67.0,65.0,-100.00,WSW,251,3.0,5.0,92,0.00,,,0.00,44.000000,,2013-08-29 12:42:00,
2013-08-29 08:52:00,67.0,65.0,-100.00,WSW,251,3.0,5.0,92,0.00,,,0.00,44.000000,,2013-08-29 12:52:00,
2013-08-29 09:02:00,67.0,65.0,-100.00,WSW,251,3.0,5.0,92,0.00,,,0.00,44.000000,,2013-08-29 13:02:00,
2013-08-29 09:42:00,71.0,66.0,-100.00,West,271,3.0,5.0,83,0.00,,,0.00,176.000000,,2013-08-29 13:42:00,
2013-08-29 09:52:00,71.0,66.0,-100.00,West,271,3.0,5.0,83,0.00,,,0.00,176.000000,,2013-08-29 13:52:00,
2013-08-29 10:02:00,71.0,66.0,-100.00,West,271,3.0,5.0,83,0.00,,,0.00,176.000000,,2013-08-29 14:02:00,
2013-08-29 10:11:00,71.0,66.0,-100.00,West,271,3.0,5.0,83,0.00,,,0.00,176.000000,,2013-08-29 14:11:00,
2013-08-29 10:12:00,76.0,68.0,-100.00,West,261,3.0,6.0,77,0.00,,,0.00,392.000000,,2013-08-29 14:12:00,
2013-08-29 10:42:00,76.0,68.0,-100.00,West,261,3.0,6.0,77,0.00,,,0.00,392.000000,,2013-08-29 14:42:00,
2013-08-29 10:52:00,76.0,68.0,-100.00,West,261,3.0,6.0,77,0.00,,,0.00,392.000000,,2013-08-29 14:52:00,
2013-08-29 11:02:00,76.0,68.0,-100.00,West,261,3.0,6.0,77,0.00,,,0.00,392.000000,,2013-08-29 15:02:00,
2013-08-29 11:12:00,80.0,68.0,-100.00,WSW,243,4.0,8.0,66,0.00,,,0.00,567.000000,,2013-08-29 15:12:00,
2013-08-29 11:43:00,80.0,68.0,-100.00,WSW,243,4.0,8.0,66,0.00,,,0.00,567.000000,,2013-08-29 15:43:00,
2013-08-29 11:53:00,80.0,68.0,-100.00,WSW,243,4.0,8.0,66,0.00,,,0.00,567.000000,,2013-08-29 15:53:00,
2013-08-29 12:05:00,80.0,68.0,-100.00,WSW,243,4.0,8.0,66,0.00,,,0.00,567.000000,,2013-08-29 16:05:00,
2013-08-29 12:12:00,83.0,64.0,-100.00,SSW,213,4.0,10.0,53,0.00,,,0.00,708.000000,,2013-08-29 16:12:00,
2013-08-29 12:43:00,83.0,64.0,-100.00,SSW,213,4.0,10.0,53,0.00,,,0.00,708.000000,,2013-08-29 16:43:00,
2013-08-29 12:54:00,83.0,64.0,-100.00,SSW,213,4.0,10.0,53,0.00,,,0.00,708.000000,,2013-08-29 16:54:00,
2013-08-29 13:03:00,83.0,64.0,-100.00,SSW,213,4.0,10.0,53,0.00,,,0.00,708.000000,,2013-08-29 17:03:00,
2013-08-29 13:12:00,85.0,65.0,-100.00,SSE,167,5.0,10.0,52,0.00,,,0.00,800.000000,,2013-08-29 17:12:00,
2013-08-29 13:44:00,85.0,65.0,-100.00,SSE,167,5.0,10.0,52,0.00,,,0.00,800.000000,,2013-08-29 17:44:00,
2013-08-29 13:53:00,85.0,65.0,-100.00,SSE,167,5.0,10.0,52,0.00,,,0.00,800.000000,,2013-08-29 17:53:00,
2013-08-29 14:02:00,85.0,65.0,-100.00,SSE,167,5.0,10.0,52,0.00,,,0.00,800.000000,,2013-08-29 18:02:00,
2013-08-29 14:42:00,87.0,65.0,-100.00,South,190,4.0,12.0,49,0.00,,,0.00,814.000000,,2013-08-29 18:42:00,
2013-08-29 14:52:00,87.0,65.0,-100.00,South,190,4.0,12.0,49,0.00,,,0.00,814.000000,,2013-08-29 18:52:00,
2013-08-29 15:01:00,87.0,65.0,-100.00,South,190,4.0,12.0,49,0.00,,,0.00,814.000000,,2013-08-29 19:01:00,
2013-08-29 15:11:00,87.0,65.0,-100.00,South,190,4.0,12.0,49,0.00,,,0.00,814.000000,,2013-08-29 19:11:00,
2013-08-29 15:12:00,86.0,64.0,-100.00,SSE,155,5.0,13.0,48,0.00,,,0.00,722.000000,,2013-08-29 19:12:00,
2013-08-29 15:42:00,86.0,64.0,-100.00,SSE,155,5.0,13.0,48,0.00,,,0.00,722.000000,,2013-08-29 19:42:00,
2013-08-29 15:53:00,86.0,64.0,-100.00,SSE,155,5.0,13.0,48,0.00,,,0.00,722.000000,,2013-08-29 19:53:00,
2013-08-29 16:02:00,86.0,64.0,-100.00,SSE,155,5.0,13.0,48,0.00,,,0.00,722.000000,,2013-08-29 20:02:00,
2013-08-29 16:12:00,86.0,63.0,-100.00,SSW,195,5.0,11.0,47,0.00,,,0.00,567.000000,,2013-08-29 20:12:00,
2013-08-29 16:42:00,86.0,63.0,-100.00,SSW,195,5.0,11.0,47,0.00,,,0.00,567.000000,,2013-08-29 20:42:00,
2013-08-29 16:52:00,86.0,63.0,-100.00,SSW,195,5.0,11.0,47,0.00,,,0.00,567.000000,,2013-08-29 20:52:00,
2013-08-29 17:01:00,86.0,63.0,-100.00,SSW,195,5.0,11.0,47,0.00,,,0.00,567.000000,,2013-08-29 21:01:00,
2013-08-29 17:12:00,84.0,65.0,-100.00,SW,216,3.0,10.0,53,0.00,,,0.00,394.000000,,2013-08-29 21:12:00,
2013-08-29 17:44:00,84.0,65.0,-100.00,SW,216,3.0,10.0,53,0.00,,,0.00,394.000000,,2013-08-29 21:44:00,
2013-08-29 17:54:00,84.0,65.0,-100.00,SW,216,3.0,10.0,53,0.00,,,0.00,394.000000,,2013-08-29 21:54:00,
2013-08-29 18:04:00,84.0,65.0,-100.00,SW,216,3.0,10.0,53,0.00,,,0.00,394.000000,,2013-08-29 22:04:00,
2013-08-29 18:12:00,80.0,67.0,-100.00,SSW,202,2.0,8.0,64,0.00,,,0.00,76.000000,,2013-08-29 22:12:00,
2013-08-29 18:43:00,80.0,67.0,-100.00,SSW,202,2.0,8.0,64,0.00,,,0.00,76.000000,,2013-08-29 22:43:00,
2013-08-29 18:53:00,80.0,67.0,-100.00,SSW,202,2.0,8.0,64,0.00,,,0.00,76.000000,,2013-08-29 22:53:00,
2013-08-29 19:03:00,80.0,67.0,-100.00,SSW,202,2.0,8.0,64,0.00,,,0.00,76.000000,,2013-08-29 23:03:00,
2013-08-29 19:12:00,74.0,71.0,-100.00,South,191,2.0,5.0,89,0.05,,,0.05,25.000000,,2013-08-29 23:12:00,
2013-08-29 19:43:00,74.0,71.0,-100.00,South,191,2.0,5.0,89,0.05,,,0.05,25.000000,,2013-08-29 23:43:00,
2013-08-29 19:53:00,74.0,71.0,-100.00,South,191,2.0,5.0,89,0.05,,,0.05,25.000000,,2013-08-29 23:53:00,
2013-08-29 20:02:00,74.0,71.0,-100.00,South,191,2.0,5.0,89,0.05,,,0.05,25.000000,,2013-08-30 00:02:00,
2013-08-29 20:12:00,72.0,70.0,-100.00,South,171,2.0,4.0,94,0.00,,,0.05,21.000000,,2013-08-30 00:12:00,
2013-08-29 20:42:00,72.0,70.0,-100.00,South,171,2.0,4.0,94,0.00,,,0.05,21.000000,,2013-08-30 00:42:00,
2013-08-29 20:52:00,72.0,70.0,-100.00,South,171,2.0,4.0,94,0.00,,,0.05,21.000000,,2013-08-30 00:52:00,
2013-08-29 21:01:00,72.0,70.0,-100.00,South,171,2.0,4.0,94,0.00,,,0.05,21.000000,,2013-08-30 01:01:00,
2013-08-29 21:42:00,71.0,69.0,-100.00,SSE,153,2.0,6.0,94,0.00,,,0.05,1.000000,,2013-08-30 01:42:00,
2013-08-29 21:52:00,71.0,69.0,-100.00,SSE,153,2.0,6.0,94,0.00,,,0.05,1.000000,,2013-08-30 01:52:00,
2013-08-29 22:02:00,71.0,69.0,-100.00,SSE,153,2.0,6.0,94,0.00,,,0.05,1.000000,,2013-08-30 02:02:00,
2013-08-29 22:11:00,71.0,69.0,-100.00,SSE,153,2.0,6.0,94,0.00,,,0.05,1.000000,,2013-08-30 02:11:00,
2013-08-29 22:12:00,71.0,69.0,-100.00,SSE,161,4.0,8.0,95,0.00,,,0.05,0.000000,,2013-08-30 02:12:00,
2013-08-29 22:42:00,71.0,69.0,-100.00,SSE,161,4.0,8.0,95,0.00,,,0.05,0.000000,,2013-08-30 02:42:00,
2013-08-29 22:52:00,71.0,69.0,-100.00,SSE,161,4.0,8.0,95,0.00,,,0.05,0.000000,,2013-08-30 02:52:00,
2013-08-29 23:02:00,71.0,69.0,-100.00,SSE,161,4.0,8.0,95,0.00,,,0.05,0.000000,,2013-08-30 03:02:00,
2013-08-29 23:12:00,70.0,66.0,-100.00,SSW,195,3.0,9.0,88,0.00,,,0.05,0.000000,,2013-08-30 03:12:00,
2013-08-29 23:43:00,70.0,66.0,-100.00,SSW,195,3.0,9.0,88,0.00,,,0.05,0.000000,,2013-08-30 03:43:00,
2013-08-29 23:55:00,70.0,66.0,-100.00,SSW,195,3.0,9.0,88,0.00,,,0.05,0.000000,,2013-08-30 03:55:00,